.
WxDataArchive / Data Records for 2011-05-08
2011-05-07 May 2011 2011-05-09

Data Records for Sunday, 08 May 2011

Time	Temp	Chill	HIndex	Humid	Dewpt	 Wind 	HiWind	WindDir	Rain 	Barom 
-----	----	-----	------	-----	-----	------	------	-------	-----	----- 
00:00	49.6	49.6	49.6	95	48.2	0	0	---	0.00	29.884 
00:05	49.5	49.5	49.5	95	48.1	0	0	---	0.00	29.884 
00:10	49.5	49.5	49.5	95	48.1	0	0	---	0.00	29.884 
00:15	49.4	49.4	49.4	95	48.0	0	0	---	0.00	29.885 
00:20	49.4	49.4	49.4	95	48.0	0	0	---	0.00	29.885 
00:25	49.4	49.4	49.4	95	48.0	0	0	---	0.00	29.885 
00:30	49.2	49.2	49.2	95	47.8	0	0	---	0.00	29.884 
00:35	49.2	49.2	49.2	95	47.8	0	0	---	0.00	29.884 
00:40	49.2	49.2	49.2	95	47.8	0	0	---	0.00	29.884 
00:45	49.1	49.1	49.1	95	47.7	0	0	---	0.00	29.886 
00:50	49.1	49.1	49.1	95	47.7	0	0	---	0.00	29.886 
00:55	49.1	49.1	49.1	95	47.7	0	0	---	0.00	29.886 
01:00	49.2	49.2	49.2	96	48.1	0	0	---	0.00	29.886 
01:05	49.2	49.2	49.2	96	48.1	0	0	---	0.00	29.886 
01:10	49.2	49.2	49.2	96	48.1	0	0	---	0.00	29.886 
01:15	49.1	49.1	49.1	96	48.0	0	0	---	0.00	29.887 
01:20	48.8	48.8	48.8	95	47.4	0	0	---	0.00	29.887 
01:25	48.8	48.8	48.8	95	47.4	0	0	---	0.00	29.887 
01:30	48.6	48.6	48.6	95	47.2	0	0	---	0.00	29.890 
01:35	48.5	48.5	48.5	96	47.4	0	0	---	0.00	29.890 
01:40	48.6	48.6	48.6	96	47.5	0	0	---	0.00	29.890 
01:45	48.6	48.6	48.6	96	47.5	0	1	68	0.00	29.891 
01:50	48.8	48.8	48.8	96	47.7	0	0	---	0.00	29.891 
01:55	48.6	48.6	48.6	96	47.5	0	0	---	0.00	29.891 
02:00	48.6	48.6	48.6	96	47.5	0	0	---	0.00	29.897 
02:05	48.6	48.6	48.6	96	47.5	0	0	---	0.00	29.897 
02:10	48.5	48.5	48.5	96	47.4	0	0	---	0.00	29.897 
02:15	48.5	48.5	48.5	96	47.4	0	0	---	0.00	29.898 
02:20	48.3	48.3	48.3	96	47.2	0	0	---	0.00	29.898 
02:25	48.2	48.2	48.2	96	47.1	0	0	---	0.00	29.898 
02:30	48.0	48.0	48.0	96	46.9	0	0	---	0.00	29.901 
02:35	47.9	47.9	47.9	96	46.8	0	0	---	0.00	29.901 
02:40	47.7	47.7	47.7	96	46.6	0	0	---	0.00	29.901 
02:45	47.6	47.6	47.6	96	46.5	0	0	---	0.00	29.901 
02:50	47.4	47.4	47.4	96	46.3	0	0	---	0.00	29.901 
02:55	47.3	47.3	47.3	96	46.2	0	0	---	0.00	29.901 
03:00	47.3	47.3	47.3	96	46.2	0	0	---	0.00	29.902 
03:05	47.1	47.1	47.1	96	46.0	0	0	---	0.00	29.902 
03:10	47.0	47.0	47.0	96	45.9	0	0	---	0.00	29.902 
03:15	47.1	47.1	47.1	96	46.0	0	0	---	0.00	29.903 
03:20	47.0	47.0	47.0	96	45.9	0	0	---	0.00	29.903 
03:25	47.0	47.0	47.0	96	45.9	0	0	---	0.00	29.903 
03:30	46.8	46.8	46.8	96	45.7	0	0	---	0.00	29.903 
03:35	46.7	46.7	46.7	96	45.6	0	0	---	0.00	29.903 
03:40	46.7	46.7	46.7	96	45.6	0	0	---	0.00	29.903 
03:45	46.7	46.7	46.7	96	45.6	0	0	---	0.00	29.904 
03:50	46.7	46.7	46.7	96	45.6	0	0	---	0.00	29.904 
03:55	46.7	46.7	46.7	96	45.6	0	0	---	0.00	29.904 
04:00	46.8	46.8	46.8	96	45.7	0	0	---	0.00	29.907 
04:05	47.1	47.1	47.1	96	46.0	0	0	---	0.00	29.907 
04:10	47.3	47.3	47.3	96	46.2	0	0	---	0.00	29.907 
04:15	47.7	47.7	47.7	96	46.6	0	0	---	0.00	29.917 
04:20	48.0	48.0	48.0	96	46.9	0	0	---	0.00	29.917 
04:25	48.2	48.2	48.2	96	47.1	0	0	---	0.00	29.917 
04:30	48.2	48.2	48.2	96	47.1	0	0	---	0.00	29.918 
04:35	48.3	48.3	48.3	96	47.2	0	0	---	0.00	29.918 
04:40	48.6	48.6	48.6	97	47.8	0	0	---	0.00	29.918 
04:45	48.9	48.9	48.9	97	48.1	0	1	68	0.00	29.919 
04:50	49.1	49.1	49.1	97	48.3	0	1	68	0.00	29.919 
04:55	49.2	49.2	49.2	97	48.4	0	2	68	0.00	29.919 
05:00	49.4	49.4	49.4	97	48.6	0	2	68	0.00	29.919 
05:05	49.4	49.4	49.4	97	48.6	1	3	68	0.00	29.919 
05:10	49.2	49.2	49.2	97	48.4	1	2	68	0.00	29.919 
05:15	49.1	49.1	49.1	97	48.3	0	1	68	0.00	29.924 
05:20	48.9	48.9	48.9	96	47.8	0	2	68	0.00	29.924 
05:25	48.8	48.8	48.8	96	47.7	1	3	68	0.00	29.924 
05:30	48.6	48.6	48.6	97	47.8	0	2	68	0.00	29.932 
05:35	48.6	48.6	48.6	97	47.8	0	2	68	0.00	29.932 
05:40	48.5	48.5	48.5	97	47.7	0	0	---	0.00	29.932 
05:45	48.5	48.5	48.5	97	47.7	0	0	---	0.00	29.937 
05:50	48.6	48.6	48.6	97	47.8	0	0	---	0.00	29.937 
05:55	48.6	48.6	48.6	97	47.8	0	1	68	0.00	29.937 
06:00	48.6	48.6	48.6	97	47.8	0	1	68	0.00	29.937 
06:05	48.6	48.6	48.6	97	47.8	0	1	68	0.00	29.937 
06:10	48.6	48.6	48.6	97	47.8	0	1	68	0.00	29.937 
06:15	48.5	48.5	48.5	97	47.7	0	2	68	0.00	29.938 
06:20	48.5	48.5	48.5	97	47.7	0	1	68	0.00	29.938 
06:25	48.3	48.3	48.3	97	47.5	0	1	68	0.00	29.938 
06:30	48.2	48.2	48.2	97	47.4	0	0	---	0.00	29.942 
06:35	48.2	48.2	48.2	97	47.4	0	1	68	0.00	29.942 
06:40	48.2	48.2	48.2	97	47.4	0	0	---	0.00	29.942 
06:45	48.2	48.2	48.2	97	47.4	1	2	68	0.00	29.954 
06:50	48.2	48.2	48.2	97	47.4	0	1	68	0.00	29.954 
06:55	48.3	48.3	48.3	97	47.5	0	0	---	0.00	29.954 
07:00	48.5	48.5	48.5	97	47.7	0	0	---	0.00	29.955 
07:05	48.6	48.6	48.6	97	47.8	0	1	68	0.00	29.955 
07:10	48.8	48.8	48.8	97	48.0	0	1	68	0.00	29.955 
07:15	48.9	48.9	48.9	97	48.1	0	0	---	0.00	29.963 
07:20	49.1	49.1	49.1	97	48.3	0	1	68	0.00	29.963 
07:25	49.1	49.1	49.1	97	48.3	0	1	68	0.00	29.963 
07:30	49.2	49.2	49.2	97	48.4	0	0	---	0.00	29.966 
07:35	49.2	49.2	49.2	97	48.4	0	1	68	0.00	29.966 
07:40	49.4	49.4	49.4	97	48.6	0	1	68	0.00	29.966 
07:45	49.5	49.5	49.5	97	48.7	0	1	68	0.00	29.971 
07:50	49.5	49.5	49.5	98	49.0	0	3	68	0.00	29.971 
07:55	49.6	49.6	49.6	97	48.8	1	3	68	0.00	29.971 
08:00	49.6	49.6	49.6	98	49.1	0	2	68	0.00	29.974 
08:05	49.8	49.8	49.8	98	49.3	0	1	68	0.00	29.974 
08:10	49.9	49.9	49.9	98	49.4	0	0	---	0.00	29.974 
08:15	50.1	50.1	50.1	98	49.6	1	3	68	0.00	29.977 
08:20	50.1	50.1	50.1	98	49.6	1	2	68	0.00	29.977 
08:25	50.4	50.4	50.4	98	49.9	0	2	68	0.00	29.977 
08:30	50.5	50.5	50.5	98	50.0	0	2	68	0.00	29.982 
08:35	50.8	50.8	50.8	98	50.3	0	1	68	0.00	29.982 
08:40	51.1	51.1	51.1	98	50.6	1	3	68	0.00	29.982 
08:45	51.3	51.3	51.3	98	50.8	1	3	68	0.00	29.984 
08:50	51.6	51.6	51.6	98	51.1	2	5	112	0.00	29.984 
08:55	51.7	51.7	51.7	98	51.2	0	3	112	0.00	29.984 
09:00	52.0	52.0	52.0	98	51.5	1	3	112	0.00	29.983 
09:05	52.3	52.3	52.3	98	51.8	1	4	112	0.00	29.983 
09:10	52.6	52.6	52.6	98	52.0	0	2	112	0.00	29.983 
09:15	53.1	53.1	53.1	98	52.5	1	4	112	0.00	29.988 
09:20	53.5	53.5	53.5	98	52.9	1	5	112	0.00	29.988 
09:25	53.8	53.8	53.8	98	53.2	1	3	112	0.00	29.988 
09:30	53.6	53.6	53.6	98	53.0	1	4	112	0.00	29.993 
09:35	53.8	53.8	53.8	98	53.2	2	5	112	0.00	29.993 
09:40	53.8	53.8	53.8	98	53.2	2	5	112	0.00	29.993 
09:45	53.5	53.5	53.5	98	52.9	2	4	90	0.00	30.000 
09:50	53.2	53.2	53.2	98	52.6	1	4	90	0.00	30.000 
09:55	53.1	53.1	53.1	98	52.5	2	6	90	0.00	30.000 
10:00	52.9	52.9	52.9	98	52.3	1	3	112	0.00	30.005 
10:05	52.9	52.9	52.9	98	52.3	2	7	112	0.00	30.005 
10:10	52.8	52.8	52.8	98	52.2	2	6	112	0.00	30.005 
10:15	52.9	52.9	52.9	98	52.3	1	3	112	0.00	30.010 
10:20	52.9	52.9	52.9	98	52.3	3	7	112	0.00	30.010 
10:25	53.2	53.2	53.2	98	52.6	2	6	90	0.00	30.010 
10:30	53.3	53.3	53.3	98	52.7	2	4	90	0.00	30.011 
10:35	53.2	53.2	53.2	98	52.6	3	6	90	0.00	30.011 
10:40	53.2	53.2	53.2	97	52.4	2	6	90	0.00	30.011 
10:45	53.2	53.2	53.2	97	52.4	1	5	112	0.00	30.015 
10:50	53.3	53.3	53.3	97	52.5	1	3	112	0.00	30.015 
10:55	53.5	53.5	53.5	97	52.7	1	3	112	0.00	30.015 
11:00	53.8	53.8	53.8	97	53.0	1	4	112	0.00	30.017 
11:05	54.1	54.1	54.1	97	53.3	1	4	112	0.01	30.017 
11:10	54.1	54.1	54.1	97	53.3	2	4	112	0.00	30.017 
11:15	54.5	54.5	54.5	97	53.7	1	3	112	0.00	30.023 
11:20	54.7	54.7	54.7	96	53.6	1	4	112	0.00	30.023 
11:25	55.0	55.0	55.0	96	53.9	1	4	112	0.00	30.023 
11:30	55.1	55.1	55.1	96	54.0	1	2	112	0.00	30.026 
11:35	55.7	55.7	55.7	96	54.6	1	3	112	0.00	30.026 
11:40	56.2	56.2	56.2	95	54.8	0	2	112	0.00	30.026 
11:45	56.2	56.2	56.2	93	54.2	1	4	112	0.00	30.019 
11:50	56.3	56.3	56.3	93	54.3	0	2	112	0.00	30.019 
11:55	56.6	56.6	56.6	92	54.3	1	3	112	0.00	30.019 
12:00	56.7	56.7	56.7	91	54.1	1	4	112	0.00	30.015 
12:05	57.5	57.5	57.5	89	54.3	2	6	112	0.00	30.015 
12:10	58.3	58.3	58.3	87	54.4	2	5	90	0.00	30.015 
12:15	58.9	58.9	58.9	85	54.4	2	5	45	0.00	30.012 
12:20	59.2	59.2	59.2	82	53.7	2	5	135	0.00	30.012 
12:25	59.5	59.5	59.5	80	53.3	2	6	90	0.00	30.012 
12:30	60.2	60.2	60.2	82	54.7	1	4	90	0.00	30.011 
12:35	61.2	61.2	61.2	79	54.6	2	5	90	0.00	30.011 
12:40	61.6	61.6	61.6	76	54.0	2	10	90	0.00	30.011 
12:45	62.0	62.0	62.0	76	54.3	1	6	112	0.00	30.002 
12:50	61.8	61.8	61.8	73	53.0	3	5	112	0.00	30.002 
12:55	61.8	61.8	61.8	74	53.4	3	7	112	0.00	30.002 
13:00	62.1	62.1	62.1	74	53.7	1	4	112	0.00	29.999 
13:05	62.7	62.7	62.7	75	54.7	1	5	112	0.00	29.999 
13:10	63.7	63.7	63.7	70	53.7	2	7	135	0.00	29.999 
13:15	64.0	64.0	64.0	67	52.8	3	7	112	0.00	29.998 
13:20	64.0	64.0	64.0	70	54.0	2	6	90	0.00	29.998 
13:25	64.3	64.3	64.3	69	53.9	0	2	90	0.00	29.998 
13:30	64.5	64.5	64.5	66	52.9	2	6	90	0.00	29.998 
13:35	64.5	64.5	64.5	68	53.7	2	7	90	0.00	29.998 
13:40	64.7	64.7	64.7	65	52.7	2	6	68	0.00	29.998 
13:45	64.7	64.7	64.7	66	53.1	3	6	68	0.00	29.995 
13:50	64.8	64.8	64.8	65	52.8	2	5	112	0.00	29.995 
13:55	65.3	65.3	65.3	62	51.9	2	4	112	0.00	29.995 
14:00	65.8	65.8	65.8	64	53.3	3	8	90	0.00	29.994 
14:05	66.1	66.1	66.1	61	52.3	2	5	112	0.00	29.994 
14:10	65.8	65.8	65.8	62	52.4	3	8	112	0.00	29.994 
14:15	65.8	65.8	65.8	61	52.0	2	7	90	0.00	29.999 
14:20	66.0	66.0	66.0	60	51.7	1	3	90	0.00	29.999 
14:25	66.3	66.3	66.3	59	51.5	2	6	90	0.00	29.999 
14:30	66.3	66.3	66.3	61	52.4	3	6	90	0.00	29.997 
14:35	66.1	66.1	66.1	58	50.9	3	6	90	0.00	29.997 
14:40	66.3	66.3	66.3	61	52.4	3	5	90	0.00	29.997 
14:45	66.8	66.8	66.8	61	52.9	3	10	112	0.00	29.994 
14:50	66.9	66.9	66.9	61	53.0	2	7	90	0.00	29.994 
14:55	67.1	67.1	67.1	58	51.8	2	7	90	0.00	29.994 
15:00	66.8	66.8	66.8	58	51.5	3	6	112	0.00	29.999 
15:05	66.9	66.9	66.9	61	53.0	1	3	0	0.00	29.999 
15:10	66.8	66.8	66.8	57	51.1	2	5	90	0.00	29.999 
15:15	66.8	66.8	66.8	61	52.9	1	5	90	0.00	30.002 
15:20	67.1	67.1	67.1	58	51.8	1	3	90	0.00	30.002 
15:25	66.4	66.4	66.4	58	51.2	2	5	90	0.00	30.002 
15:30	66.3	66.3	66.3	58	51.1	1	3	90	0.00	29.997 
15:35	66.6	66.6	66.6	56	50.4	2	5	90	0.00	29.997 
15:40	67.3	67.3	67.3	57	51.5	1	6	90	0.00	29.997 
15:45	67.1	67.1	67.1	56	50.9	1	4	112	0.00	29.996 
15:50	67.1	67.1	67.1	57	51.3	1	4	68	0.00	29.996 
15:55	67.8	67.8	67.8	56	51.5	2	5	90	0.00	29.996 
16:00	68.1	68.1	68.1	54	50.8	1	4	112	0.00	29.989 
16:05	68.4	68.4	68.4	54	51.1	2	6	90	0.00	29.989 
16:10	68.6	68.6	68.6	53	50.8	1	5	90	0.00	29.989 
16:15	68.8	68.8	68.8	55	52.0	1	3	90	0.00	29.982 
16:20	68.9	68.9	68.9	53	51.1	1	4	90	0.00	29.982 
16:25	68.6	68.6	68.6	54	51.3	2	7	90	0.00	29.982 
16:30	68.4	68.4	68.4	52	50.1	2	6	90	0.00	29.986 
16:35	68.8	68.8	68.8	53	51.0	1	3	90	0.00	29.986 
16:40	68.8	68.8	68.8	51	49.9	2	5	90	0.00	29.986 
16:45	68.9	68.9	68.9	51	50.0	2	5	90	0.00	29.977 
16:50	69.1	69.1	69.1	51	50.2	3	7	90	0.00	29.977 
16:55	68.9	68.9	68.9	50	49.5	3	7	112	0.00	29.977 
17:00	68.9	68.9	68.9	48	48.4	2	5	112	0.00	29.976 
17:05	68.9	68.9	68.9	49	48.9	2	6	112	0.00	29.976 
17:10	68.6	68.6	68.6	50	49.2	2	4	112	0.00	29.976 
17:15	68.1	68.1	68.1	51	49.3	1	6	90	0.00	29.977 
17:20	67.8	67.8	67.8	53	50.0	2	4	90	0.00	29.977 
17:25	67.6	67.6	67.6	52	49.3	2	6	112	0.00	29.977 
17:30	67.8	67.8	67.8	51	49.0	2	5	90	0.00	29.979 
17:35	68.1	68.1	68.1	54	50.8	1	4	90	0.00	29.979 
17:40	68.4	68.4	68.4	50	49.0	2	4	90	0.00	29.979 
17:45	68.3	68.3	68.3	50	48.9	2	4	112	0.00	29.980 
17:50	68.1	68.1	68.1	50	48.7	1	3	112	0.00	29.980 
17:55	68.3	68.3	68.3	49	48.4	2	4	112	0.00	29.980 
18:00	68.3	68.3	68.3	49	48.4	2	4	112	0.00	29.986 
18:05	68.1	68.1	68.1	50	48.7	3	9	112	0.00	29.986 
18:10	68.1	68.1	68.1	51	49.3	3	7	112	0.00	29.986 
18:15	67.8	67.8	67.8	52	49.5	3	6	90	0.00	29.980 
18:20	67.3	67.3	67.3	52	49.1	2	5	90	0.00	29.980 
18:25	67.1	67.1	67.1	52	48.9	2	5	90	0.00	29.980 
18:30	66.9	66.9	66.9	53	49.2	2	6	112	0.00	29.978 
18:35	67.1	67.1	67.1	54	49.9	2	5	90	0.00	29.978 
18:40	67.1	67.1	67.1	54	49.9	4	10	90	0.00	29.978 
18:45	66.8	66.8	66.8	54	49.6	4	10	90	0.00	29.987 
18:50	66.8	66.8	66.8	53	49.1	4	13	112	0.00	29.987 
18:55	66.6	66.6	66.6	55	49.9	3	6	112	0.00	29.987 
19:00	66.4	66.4	66.4	54	49.2	3	10	112	0.00	29.993 
19:05	66.3	66.3	66.3	54	49.1	3	7	90	0.00	29.993 
19:10	66.1	66.1	66.1	54	49.0	3	6	90	0.00	29.993 
19:15	66.1	66.1	66.1	54	49.0	2	4	90	0.00	29.995 
19:20	66.0	66.0	66.0	55	49.4	2	5	90	0.00	29.995 
19:25	65.6	65.6	65.6	55	49.0	2	5	90	0.00	29.995 
19:30	65.5	65.5	65.5	55	48.9	2	5	112	0.00	29.998 
19:35	65.5	65.5	65.5	55	48.9	2	6	112	0.00	29.998 
19:40	65.3	65.3	65.3	55	48.7	2	5	90	0.00	29.998 
19:45	65.2	65.2	65.2	55	48.6	2	4	68	0.00	30.007 
19:50	65.0	65.0	65.0	57	49.4	1	4	68	0.00	30.007 
19:55	64.7	64.7	64.7	57	49.1	2	6	90	0.00	30.007 
20:00	64.3	64.3	64.3	56	48.3	3	6	112	0.00	30.009 
20:05	64.0	64.0	64.0	57	48.5	2	5	90	0.00	30.009 
20:10	63.7	63.7	63.7	58	48.6	2	5	90	0.00	30.009 
20:15	63.5	63.5	63.5	58	48.5	2	5	90	0.00	30.007 
20:20	63.2	63.2	63.2	59	48.6	2	6	90	0.00	30.007 
20:25	63.1	63.1	63.1	59	48.5	2	5	68	0.00	30.007 
20:30	62.7	62.7	62.7	59	48.2	2	5	68	0.00	30.010 
20:35	62.6	62.6	62.6	59	48.1	2	4	68	0.00	30.010 
20:40	62.4	62.4	62.4	60	48.3	1	3	90	0.00	30.010 
20:45	62.3	62.3	62.3	60	48.2	2	5	90	0.00	30.011 
20:50	62.1	62.1	62.1	59	47.6	3	6	90	0.00	30.011 
20:55	61.8	61.8	61.8	59	47.3	3	7	90	0.00	30.011 
21:00	61.5	61.5	61.5	57	46.1	4	15	90	0.00	30.013 
21:05	61.2	61.2	61.2	56	45.4	4	9	90	0.00	30.013 
21:10	60.9	60.9	60.9	56	45.1	3	7	90	0.00	30.013 
21:15	60.5	60.5	60.5	55	44.2	3	9	90	0.00	30.025 
21:20	60.4	60.4	60.4	54	43.7	3	7	90	0.00	30.025 
21:25	60.1	60.1	60.1	52	42.4	4	8	90	0.00	30.025 
21:30	59.9	59.9	59.9	52	42.2	2	7	90	0.00	30.042 
21:35	59.6	59.6	59.6	52	42.0	2	8	90	0.00	30.042 
21:40	59.5	59.5	59.5	52	41.9	2	5	90	0.00	30.042 
21:45	59.3	59.3	59.3	53	42.2	2	6	90	0.00	30.041 
21:50	59.0	59.0	59.0	53	41.9	2	6	90	0.00	30.041 
21:55	58.9	58.9	58.9	53	41.8	2	4	68	0.00	30.041 
22:00	58.7	58.7	58.7	54	42.1	2	5	68	0.00	30.040 
22:05	58.4	58.4	58.4	54	41.8	2	5	90	0.00	30.040 
22:10	58.4	58.4	58.4	54	41.8	2	4	112	0.00	30.040 
22:15	58.3	58.3	58.3	54	41.7	2	4	112	0.00	30.043 
22:20	58.1	58.1	58.1	54	41.5	2	4	68	0.00	30.043 
22:25	58.0	58.0	58.0	55	41.9	1	4	68	0.00	30.043 
22:30	57.8	57.8	57.8	55	41.7	2	6	68	0.00	30.045 
22:35	57.8	57.8	57.8	54	41.3	1	4	68	0.00	30.045 
22:40	57.6	57.6	57.6	54	41.1	1	4	68	0.00	30.045 
22:45	57.5	57.5	57.5	54	41.0	1	3	90	0.00	30.043 
22:50	57.3	57.3	57.3	56	41.7	1	2	90	0.00	30.043 
22:55	57.2	57.2	57.2	55	41.2	1	3	90	0.00	30.043 
23:00	57.0	57.0	57.0	56	41.5	1	4	90	0.00	30.044 
23:05	56.9	56.9	56.9	57	41.8	2	5	90	0.00	30.044 
23:10	56.6	56.6	56.6	58	42.0	1	4	68	0.00	30.044 
23:15	56.5	56.5	56.5	57	41.5	1	3	68	0.00	30.040 
23:20	56.5	56.5	56.5	57	41.5	2	4	68	0.00	30.040 
23:25	56.3	56.3	56.3	57	41.3	2	7	90	0.00	30.040 
23:30	56.3	56.3	56.3	57	41.3	1	4	90	0.00	30.030 
23:35	56.0	56.0	56.0	57	41.0	1	2	90	0.00	30.030 
23:40	55.9	55.9	55.9	57	40.9	1	3	90	0.00	30.030 
23:45	55.7	55.7	55.7	57	40.7	0	2	90	0.00	30.029 
23:50	55.4	55.4	55.4	58	40.9	0	2	90	0.00	30.029 
23:55	55.3	55.3	55.3	58	40.8	0	2	90	0.00	30.029 

CoCoRaHS
IN-AL-39
A2 Web Hosting
Creative Commons License
GoDaddy
search engine by freefind advanced

loaded 2018-11-15 18:04:07 • last modified 2010-11-18 10:43:29
Privacy PolicyDisclaimer
• wx.awcolley.com is powered by PmWiki v.2002016 •
• all content (unless otherwise noted) © 2018 A W Colley